createdAt,value
2023-01-10T06:11:16.677Z,3.17
2023-01-10T07:52:43.909Z,9.57
2023-01-10T08:38:37.687Z,9.20
2023-01-10T09:01:30.908Z,9.27
2023-01-10T09:04:02.112Z,11.05
2023-01-10T09:49:55.578Z,2.92
2023-01-10T11:40:58.966Z,5.55
2023-01-10T12:18:40.456Z,6.90
2023-01-10T13:45:15.521Z,4.28
2023-01-10T14:18:23.257Z,5.65
2023-01-10T14:21:10.786Z,5.22
2023-01-10T14:23:40.968Z,4.57
2023-01-10T14:26:09.716Z,4.03
2023-01-10T14:28:37.596Z,5.65
2023-01-10T14:31:07.400Z,3.30
2023-01-10T14:33:45.094Z,5.13
2023-01-10T14:36:16.548Z,3.55
2023-01-10T14:38:46.016Z,5.25
2023-01-10T14:41:18.557Z,3.75
2023-01-10T14:43:48.664Z,2.33
2023-01-10T14:46:28.279Z,4.20
2023-01-10T14:49:00.854Z,3.63
2023-01-10T14:51:29.351Z,3.92
2023-01-10T14:53:59.067Z,2.13
2023-01-10T14:56:28.201Z,2.90
2023-01-10T14:58:56.320Z,1.92
2023-01-10T15:01:26.335Z,4.18
2023-01-10T15:03:55.140Z,4.50
2023-01-10T15:06:25.912Z,4.50
2023-01-10T15:08:57.804Z,4.68
2023-01-10T15:11:26.752Z,3.63
2023-01-10T15:13:57.427Z,3.15
2023-01-10T15:16:28.159Z,2.42
2023-01-10T15:18:58.414Z,4.93
2023-01-10T15:21:28.291Z,3.00
2023-01-10T15:23:56.150Z,4.97
2023-01-10T15:26:28.531Z,2.67
2023-01-10T15:29:13.002Z,3.83
2023-01-10T15:31:41.529Z,4.53
2023-01-10T15:34:10.682Z,3.97
2023-01-10T15:36:43.369Z,2.95
2023-01-10T15:39:14.779Z,2.67
2023-01-10T15:41:42.788Z,3.88
2023-01-10T15:44:23.846Z,2.38
2023-01-10T15:46:55.572Z,4.85
2023-01-10T15:49:25.034Z,3.38
2023-01-10T15:51:54.307Z,3.50
2023-01-10T15:54:34.552Z,3.00
2023-01-10T15:57:31.959Z,3.00
2023-01-10T16:00:03.392Z,1.45
2023-01-10T16:02:35.122Z,2.42
2023-01-10T16:05:08.916Z,2.08
2023-01-10T16:07:43.319Z,2.08
2023-01-10T16:10:18.807Z,2.05
2023-01-10T16:13:03.865Z,2.13
2023-01-10T16:15:32.349Z,1.85
2023-01-10T16:18:00.237Z,1.60
2023-01-10T16:20:30.050Z,1.88
2023-01-10T16:22:59.933Z,2.80
2023-01-10T16:25:30.143Z,2.10
2023-01-10T16:27:58.343Z,2.33
2023-01-10T16:30:27.169Z,2.05
2023-01-10T16:32:55.442Z,1.00
2023-01-10T16:35:23.237Z,1.67
2023-01-10T16:37:54.927Z,1.30
2023-01-10T16:40:27.180Z,0.77
2023-01-10T16:43:12.851Z,1.42
2023-01-10T16:45:42.042Z,0.98
2023-01-10T16:48:10.045Z,1.05
2023-01-10T16:50:37.796Z,0.73
2023-01-10T16:53:06.390Z,1.65
2023-01-10T16:55:45.390Z,1.55
2023-01-10T16:58:14.106Z,1.10
2023-01-10T17:00:43.977Z,0.63
2023-01-10T17:03:13.648Z,1.60
2023-01-10T17:05:41.408Z,0.82
2023-01-10T17:08:14.626Z,2.40
2023-01-10T17:10:42.566Z,0.50
2023-01-10T17:13:12.249Z,1.17
2023-01-10T17:16:10.691Z,0.52
2023-01-10T17:18:29.284Z,1.15
2023-01-10T17:20:58.272Z,0.88
2023-01-10T17:23:26.822Z,0.63
2023-01-10T17:25:59.324Z,0.70
2023-01-10T17:28:29.051Z,1.65
2023-01-10T17:30:57.405Z,1.50
2023-01-10T17:33:25.692Z,2.13
2023-01-10T17:35:54.159Z,1.40
2023-01-10T17:38:22.778Z,0.82
2023-01-10T17:40:51.129Z,0.63
2023-01-10T17:43:31.981Z,0.82
2023-01-10T17:46:05.917Z,1.25
2023-01-10T17:57:13.644Z,1.13
2023-01-10T17:59:41.573Z,1.13
2023-01-10T18:02:17.024Z,0.63
2023-01-10T18:04:46.271Z,0.98
2023-01-10T18:07:17.284Z,0.90
2023-01-10T18:09:46.480Z,0.73
2023-01-10T18:12:14.733Z,1.25
2023-01-10T18:14:42.728Z,1.15
2023-01-10T18:17:12.094Z,0.93
2023-01-10T18:19:42.904Z,0.80
2023-01-10T18:22:33.371Z,1.10
2023-01-10T18:36:45.463Z,2.17
2023-01-10T18:39:52.109Z,1.25
2023-01-10T18:42:46.089Z,0.70
2023-01-10T18:45:14.171Z,0.60
2023-01-10T18:47:44.499Z,0.88
2023-01-10T18:50:32.537Z,0.70
2023-01-10T18:56:12.277Z,1.05
2023-01-10T18:58:53.267Z,1.63
2023-01-10T19:05:19.205Z,0.88
2023-01-10T19:08:32.379Z,0.75
2023-01-10T19:11:13.561Z,1.65
2023-01-10T19:14:07.297Z,1.00
2023-01-10T19:16:35.079Z,0.93
2023-01-10T19:19:03.925Z,1.27
2023-01-10T19:22:08.783Z,0.80
2023-01-10T19:40:22.759Z,0.98
2023-01-10T20:05:29.449Z,0.40
2023-01-10T21:12:26.773Z,0.88
2023-01-10T22:47:16.627Z,0.47
